Time;durP1;ratioP1;P1;durP2;ratioP2;P2;SDS_P1;SDS_P2;PMS_P1;PMS_P2;Temp;Humidity;BMP_temperature;BMP_pressure;BME280_temperature;BME280_humidity;BME280_pressure;Samples;Min_cycle;Max_cycle;Signal;HPM_P1;HPM_P2
2023/11/15 00:02:14;;;;;;;1.60;1.10;;;10.60;98.20;;;;;;5003681;28;20475;-84
2023/11/15 00:04:41;;;;;;;1.60;1.20;;;10.70;98.20;;;;;;4999895;28;20457;-85
2023/11/15 00:07:09;;;;;;;1.60;1.20;;;10.70;98.20;;;;;;4998596;28;20507;-84
2023/11/15 00:09:36;;;;;;;1.60;1.10;;;10.70;98.20;;;;;;5001802;28;20469;-84
2023/11/15 00:12:04;;;;;;;1.60;1.10;;;10.70;98.20;;;;;;4995791;28;20474;-84
2023/11/15 00:14:31;;;;;;;1.60;1.10;;;10.70;98.20;;;;;;5003469;28;20463;-84
2023/11/15 00:16:58;;;;;;;1.60;1.10;;;10.70;98.20;;;;;;4995703;28;20948;-84
2023/11/15 00:19:30;;;;;;;1.60;1.10;;;10.70;98.20;;;;;;5001139;28;20457;-83
2023/11/15 00:21:57;;;;;;;1.60;1.20;;;10.70;98.20;;;;;;5000975;28;20491;-84
2023/11/15 00:24:25;;;;;;;1.60;1.20;;;10.70;98.20;;;;;;5006463;28;20472;-84
2023/11/15 00:26:52;;;;;;;1.60;1.10;;;10.70;98.20;;;;;;4995006;28;20538;-85
2023/11/15 00:29:19;;;;;;;1.60;1.10;;;10.70;98.20;;;;;;5011636;28;20465;-83
2023/11/15 00:31:45;;;;;;;1.60;1.10;;;10.70;98.20;;;;;;5003520;28;20489;-84
2023/11/15 00:34:12;;;;;;;2.27;2.07;;;10.80;98.20;;;;;;5016791;28;20474;-84
2023/11/15 00:36:42;;;;;;;1.60;1.10;;;10.80;98.20;;;;;;4999627;28;20486;-84
2023/11/15 00:39:09;;;;;;;1.60;1.20;;;10.80;98.20;;;;;;5012090;28;20476;-83
2023/11/15 00:41:40;;;;;;;1.60;1.17;;;10.80;98.20;;;;;;5000318;28;20530;-83
2023/11/15 00:44:07;;;;;;;1.60;1.17;;;10.80;98.20;;;;;;5021371;28;20464;-83
2023/11/15 00:46:34;;;;;;;1.60;1.30;;;10.80;98.20;;;;;;5015218;28;20509;-84
2023/11/15 00:49:01;;;;;;;1.60;1.20;;;10.80;98.20;;;;;;5017860;28;20500;-83
2023/11/15 00:51:28;;;;;;;1.60;1.10;;;10.80;98.20;;;;;;4995164;28;20486;-83
2023/11/15 00:53:55;;;;;;;1.60;1.20;;;10.80;98.20;;;;;;5019022;28;20574;-83
2023/11/15 00:56:22;;;;;;;1.60;1.10;;;10.80;98.20;;;;;;4998765;28;20475;-83
2023/11/15 00:58:50;;;;;;;1.60;1.10;;;10.80;98.20;;;;;;5014793;28;20476;-84
2023/11/15 01:01:24;;;;;;;1.60;1.20;;;10.80;98.20;;;;;;4994591;28;20474;-81
2023/11/15 01:03:56;;;;;;;1.60;1.10;;;10.80;98.20;;;;;;5019693;28;20469;-84
2023/11/15 01:06:24;;;;;;;1.60;1.20;;;10.80;98.20;;;;;;4996215;28;20492;-85
2023/11/15 01:08:51;;;;;;;1.60;1.20;;;10.90;98.20;;;;;;5013957;28;20485;-83
2023/11/15 01:11:18;;;;;;;1.60;1.20;;;10.90;98.20;;;;;;4991909;28;20475;-81
2023/11/15 01:13:46;;;;;;;1.60;1.10;;;10.80;98.20;;;;;;5009753;28;20457;-81
2023/11/15 01:16:14;;;;;;;1.60;1.10;;;10.80;98.20;;;;;;4993221;28;21112;-83
2023/11/15 01:18:42;;;;;;;1.60;1.10;;;10.90;98.20;;;;;;5023382;28;20539;-84
2023/11/15 01:21:11;;;;;;;1.60;1.30;;;10.80;98.20;;;;;;4991316;28;20481;-84
2023/11/15 01:23:39;;;;;;;1.60;1.10;;;10.80;98.20;;;;;;5016680;28;20457;-84
2023/11/15 01:26:06;;;;;;;1.60;1.13;;;10.80;98.20;;;;;;4996827;28;20550;-84
2023/11/15 01:28:33;;;;;;;1.60;1.23;;;10.80;98.20;;;;;;5031177;28;20491;-84
2023/11/15 01:31:00;;;;;;;1.60;1.20;;;10.80;98.20;;;;;;4992853;28;20461;-84
2023/11/15 01:33:28;;;;;;;1.60;1.20;;;10.80;98.20;;;;;;5018796;28;20970;-84
2023/11/15 01:35:55;;;;;;;1.60;1.10;;;10.80;98.20;;;;;;4991504;28;20488;-84
2023/11/15 01:38:23;;;;;;;1.60;1.10;;;10.80;98.20;;;;;;5012510;28;20564;-84
2023/11/15 01:40:50;;;;;;;1.60;1.10;;;10.80;98.20;;;;;;4991594;28;20465;-84
2023/11/15 01:43:17;;;;;;;1.60;1.10;;;10.80;98.20;;;;;;5024705;28;20463;-84
2023/11/15 01:45:46;;;;;;;1.60;1.23;;;10.80;98.20;;;;;;4999582;28;20457;-84
2023/11/15 01:48:14;;;;;;;1.60;1.10;;;10.80;98.20;;;;;;5006163;28;20548;-84
2023/11/15 01:50:43;;;;;;;1.60;1.20;;;10.80;98.20;;;;;;5019556;28;20460;-85
2023/11/15 01:53:10;;;;;;;1.60;1.20;;;10.80;98.20;;;;;;5011813;28;20626;-84
2023/11/15 01:55:39;;;;;;;1.60;1.27;;;10.80;98.20;;;;;;5017342;28;20469;-84
2023/11/15 01:58:07;;;;;;;1.60;1.10;;;10.80;98.20;;;;;;5035001;28;20483;-85
2023/11/15 02:00:35;;;;;;;1.70;1.30;;;10.80;98.20;;;;;;5015026;28;20514;-84
2023/11/15 02:03:02;;;;;;;1.60;1.10;;;10.80;98.20;;;;;;5013124;28;20481;-84
2023/11/15 02:05:29;;;;;;;1.60;1.20;;;10.80;98.20;;;;;;5006321;28;20468;-84
2023/11/15 02:07:57;;;;;;;1.60;1.10;;;10.80;98.20;;;;;;5010180;28;20486;-84
2023/11/15 02:10:25;;;;;;;1.60;1.20;;;10.90;98.20;;;;;;5000335;28;20825;-83
2023/11/15 02:12:52;;;;;;;1.60;1.10;;;10.90;98.20;;;;;;4997312;28;20875;-84
2023/11/15 02:15:21;;;;;;;1.60;1.30;;;10.90;98.20;;;;;;5001543;28;20556;-84
2023/11/15 02:17:48;;;;;;;1.60;1.10;;;10.90;98.20;;;;;;4990972;28;21084;-84
2023/11/15 02:20:16;;;;;;;1.60;1.17;;;10.90;98.20;;;;;;4988940;28;20462;-84
2023/11/15 02:22:45;;;;;;;1.60;1.10;;;10.90;98.20;;;;;;5007823;28;20479;-82
2023/11/15 02:25:13;;;;;;;1.60;1.10;;;10.90;98.20;;;;;;4995019;28;20463;-83
2023/11/15 02:27:40;;;;;;;1.60;1.20;;;10.90;98.20;;;;;;5008578;28;20906;-83
2023/11/15 02:30:09;;;;;;;1.60;1.20;;;10.90;98.20;;;;;;5004490;28;20466;-82
2023/11/15 02:32:37;;;;;;;1.60;1.10;;;10.90;98.20;;;;;;5007640;28;20577;-82
2023/11/15 02:35:04;;;;;;;1.60;1.20;;;10.90;98.20;;;;;;5001037;28;20461;-83
2023/11/15 02:37:33;;;;;;;1.60;1.17;;;10.90;98.20;;;;;;5011747;28;20471;-83
2023/11/15 02:40:04;;;;;;;1.60;1.13;;;10.90;98.20;;;;;;4990275;28;20809;-82
2023/11/15 02:42:32;;;;;;;1.60;1.13;;;10.90;98.20;;;;;;4995799;28;20480;-83
2023/11/15 02:44:59;;;;;;;1.60;1.10;;;10.90;98.20;;;;;;4988435;28;20469;-83
2023/11/15 02:47:26;;;;;;;1.60;1.20;;;10.90;98.20;;;;;;4999437;28;20479;-83
2023/11/15 02:49:53;;;;;;;1.60;1.20;;;10.90;98.20;;;;;;4990108;28;20464;-84
2023/11/15 02:52:19;;;;;;;1.60;1.10;;;10.90;98.20;;;;;;4997313;28;21054;-83
2023/11/15 02:54:46;;;;;;;1.70;1.43;;;10.90;98.20;;;;;;4991962;28;20484;-83
2023/11/15 02:57:13;;;;;;;1.60;1.10;;;10.90;98.20;;;;;;4998908;28;20495;-83
2023/11/15 02:59:41;;;;;;;1.60;1.20;;;10.90;98.20;;;;;;4994945;28;20472;-83
2023/11/15 03:02:08;;;;;;;1.60;1.20;;;10.90;98.20;;;;;;4996620;28;20472;-82
2023/11/15 03:04:35;;;;;;;1.60;1.10;;;10.90;98.20;;;;;;4995958;28;20844;-83
2023/11/15 03:07:02;;;;;;;1.60;1.20;;;11.00;98.20;;;;;;4996497;28;20479;-83
2023/11/15 03:09:28;;;;;;;1.60;1.20;;;11.00;98.20;;;;;;4998666;28;20500;-83
2023/11/15 03:11:55;;;;;;;1.60;1.10;;;11.00;98.20;;;;;;4986789;28;20514;-83
2023/11/15 03:14:21;;;;;;;1.60;1.10;;;11.00;98.20;;;;;;4995092;28;20244;-83
2023/11/15 03:16:50;;;;;;;1.60;1.20;;;11.00;98.20;;;;;;4994836;28;20514;-83
2023/11/15 03:19:16;;;;;;;1.60;1.10;;;11.00;98.20;;;;;;5000456;28;20485;-83
2023/11/15 03:21:43;;;;;;;1.60;1.20;;;11.00;98.20;;;;;;4990285;28;20491;-82
2023/11/15 03:24:10;;;;;;;1.60;1.10;;;11.00;98.20;;;;;;5000391;28;20466;-84
2023/11/15 03:26:37;;;;;;;1.60;1.10;;;11.00;98.20;;;;;;4987410;28;20491;-83
2023/11/15 03:29:05;;;;;;;1.60;1.40;;;11.00;98.20;;;;;;5007457;28;20529;-84
2023/11/15 03:31:31;;;;;;;1.60;1.20;;;11.00;98.20;;;;;;4984115;28;20517;-83
2023/11/15 03:33:59;;;;;;;1.60;1.20;;;10.90;98.20;;;;;;5005114;28;20548;-84
2023/11/15 03:36:27;;;;;;;1.60;1.20;;;10.90;98.20;;;;;;4988593;28;20478;-84
2023/11/15 03:38:54;;;;;;;1.63;1.30;;;10.90;98.20;;;;;;5004743;28;20596;-84
2023/11/15 03:41:21;;;;;;;1.60;1.10;;;11.00;98.20;;;;;;4985189;28;20777;-84
2023/11/15 03:43:48;;;;;;;1.60;1.20;;;10.90;98.20;;;;;;5010156;28;20461;-85
2023/11/15 03:46:14;;;;;;;1.60;1.20;;;10.90;98.20;;;;;;4986111;28;20542;-84
2023/11/15 03:48:41;;;;;;;1.60;1.20;;;10.90;98.20;;;;;;5007964;28;20488;-84
2023/11/15 03:51:09;;;;;;;1.60;1.10;;;10.90;98.20;;;;;;4982897;28;20901;-85
2023/11/15 03:53:37;;;;;;;1.60;1.10;;;10.90;98.20;;;;;;5011199;28;20468;-84
2023/11/15 03:56:06;;;;;;;1.60;1.13;;;10.90;98.20;;;;;;4978839;28;20468;-84
2023/11/15 03:58:32;;;;;;;1.60;1.10;;;10.90;98.20;;;;;;5006167;28;20539;-84
2023/11/15 04:01:00;;;;;;;1.60;1.10;;;10.90;98.20;;;;;;4976250;28;20860;-84
2023/11/15 04:03:27;;;;;;;1.60;1.20;;;10.90;98.20;;;;;;5006837;28;20473;-83
2023/11/15 04:05:54;;;;;;;1.60;1.10;;;10.90;98.20;;;;;;4977846;28;20457;-83
2023/11/15 04:08:22;;;;;;;1.60;1.10;;;10.90;98.20;;;;;;5014476;28;20530;-85
2023/11/15 04:10:50;;;;;;;1.60;1.10;;;10.90;98.20;;;;;;4981116;28;20475;-84
2023/11/15 04:13:20;;;;;;;1.60;1.10;;;10.90;98.20;;;;;;5019880;28;20903;-84
2023/11/15 04:15:47;;;;;;;1.60;1.20;;;11.00;98.20;;;;;;4989534;28;20559;-85
2023/11/15 04:18:14;;;;;;;1.60;1.23;;;10.90;98.20;;;;;;5021965;28;20592;-85
2023/11/15 04:20:41;;;;;;;1.60;1.20;;;10.90;98.20;;;;;;4991103;28;20462;-85
2023/11/15 04:23:08;;;;;;;1.60;1.10;;;10.90;98.20;;;;;;4997633;28;20495;-84
2023/11/15 04:25:36;;;;;;;1.60;1.13;;;10.90;98.20;;;;;;4991151;28;20457;-86
2023/11/15 04:28:04;;;;;;;1.60;1.20;;;10.90;98.20;;;;;;5009105;28;20526;-85
2023/11/15 04:30:31;;;;;;;1.60;1.30;;;10.90;98.20;;;;;;4993181;28;20929;-85
2023/11/15 04:32:59;;;;;;;1.60;1.20;;;10.90;98.20;;;;;;5003972;28;20484;-84
2023/11/15 04:35:26;;;;;;;1.60;1.20;;;10.90;98.20;;;;;;4992777;28;20468;-85
2023/11/15 04:37:53;;;;;;;1.60;1.20;;;10.80;98.20;;;;;;5009468;28;20475;-86
2023/11/15 04:40:20;;;;;;;1.60;1.20;;;10.80;98.20;;;;;;4992486;28;20468;-85
2023/11/15 04:42:49;;;;;;;1.60;1.13;;;10.80;98.20;;;;;;5013967;28;20483;-85
2023/11/15 04:45:15;;;;;;;1.60;1.20;;;10.70;98.20;;;;;;4994413;28;20475;-84
2023/11/15 04:47:42;;;;;;;1.60;1.10;;;10.80;98.20;;;;;;5007307;28;20509;-85
2023/11/15 04:50:10;;;;;;;1.60;1.20;;;10.70;98.20;;;;;;4996586;28;20457;-86
2023/11/15 04:52:37;;;;;;;1.60;1.20;;;10.70;98.20;;;;;;5008953;28;20502;-85
2023/11/15 04:55:04;;;;;;;1.60;1.10;;;10.70;98.20;;;;;;4996591;28;20465;-85
2023/11/15 04:57:33;;;;;;;1.60;1.30;;;10.70;98.20;;;;;;5004490;28;20606;-85
2023/11/15 05:00:04;;;;;;;1.60;1.10;;;10.70;98.20;;;;;;4996687;28;20459;-85
2023/11/15 05:02:31;;;;;;;1.60;1.10;;;10.70;98.20;;;;;;5008346;28;20543;-85
2023/11/15 05:04:58;;;;;;;1.60;1.10;;;10.70;98.20;;;;;;5002218;28;20461;-85
2023/11/15 05:07:25;;;;;;;1.60;1.20;;;10.70;98.20;;;;;;5017276;28;20501;-85
2023/11/15 05:09:51;;;;;;;1.60;1.20;;;10.70;98.20;;;;;;5000281;28;20491;-85
2023/11/15 05:12:18;;;;;;;1.60;1.10;;;10.70;98.20;;;;;;5008604;28;20479;-86
2023/11/15 05:14:45;;;;;;;1.60;1.10;;;10.70;98.20;;;;;;5006500;28;20247;-86
2023/11/15 05:17:14;;;;;;;1.60;1.20;;;10.70;98.20;;;;;;5010215;28;20490;-86
2023/11/15 05:19:40;;;;;;;1.60;1.10;;;10.70;98.20;;;;;;5007807;28;20556;-85
2023/11/15 05:22:08;;;;;;;1.60;1.10;;;10.80;98.20;;;;;;5009995;28;20475;-84
2023/11/15 05:24:35;;;;;;;1.60;1.20;;;10.80;98.20;;;;;;5006171;28;20519;-85
2023/11/15 05:27:03;;;;;;;1.60;1.20;;;10.70;98.20;;;;;;5009843;28;20482;-85
2023/11/15 05:29:30;;;;;;;1.60;1.10;;;10.80;98.20;;;;;;5005850;28;20548;-85
2023/11/15 05:31:57;;;;;;;1.60;1.10;;;10.80;98.20;;;;;;5006821;28;20491;-85
2023/11/15 05:34:26;;;;;;;1.60;1.20;;;10.80;98.20;;;;;;5010955;28;20465;-85
2023/11/15 05:36:53;;;;;;;1.60;1.10;;;10.80;98.20;;;;;;5002886;28;20492;-85
2023/11/15 05:39:21;;;;;;;1.60;1.17;;;10.70;98.20;;;;;;5011953;28;20520;-85
2023/11/15 05:41:48;;;;;;;1.60;1.10;;;10.70;98.20;;;;;;5005626;28;20487;-85
2023/11/15 05:44:15;;;;;;;1.60;1.10;;;10.70;98.20;;;;;;5014910;28;20966;-86
2023/11/15 05:46:42;;;;;;;1.60;1.10;;;10.70;98.20;;;;;;5009563;28;20489;-85
2023/11/15 05:49:09;;;;;;;1.60;1.10;;;10.70;98.20;;;;;;5021429;28;20548;-87
2023/11/15 05:51:40;;;;;;;1.60;1.20;;;10.70;98.20;;;;;;5002556;28;20484;-86
2023/11/15 05:54:07;;;;;;;1.60;1.20;;;10.70;98.20;;;;;;5020242;28;20472;-86
2023/11/15 05:56:34;;;;;;;1.60;1.20;;;10.70;98.20;;;;;;5006001;28;21002;-85
2023/11/15 05:59:02;;;;;;;1.60;1.10;;;10.70;98.20;;;;;;5031138;28;20500;-86
2023/11/15 06:01:29;;;;;;;1.60;1.10;;;10.70;98.20;;;;;;5002442;28;20586;-85
2023/11/15 06:03:55;;;;;;;1.60;1.07;;;10.70;98.20;;;;;;5017211;28;20469;-84
2023/11/15 06:06:22;;;;;;;1.60;1.10;;;10.70;98.20;;;;;;5000112;28;21065;-84
2023/11/15 06:08:50;;;;;;;5.00;3.33;;;10.70;98.20;;;;;;5019059;28;20553;-85
2023/11/15 06:11:17;;;;;;;1.60;1.13;;;10.70;98.20;;;;;;4996513;28;20504;-84
2023/11/15 06:13:44;;;;;;;1.60;1.10;;;10.70;98.20;;;;;;5023697;28;20503;-85
2023/11/15 06:16:12;;;;;;;1.60;1.10;;;10.70;98.20;;;;;;5000146;28;21033;-86
2023/11/15 06:18:39;;;;;;;1.60;1.30;;;10.70;98.20;;;;;;5009437;28;20488;-85
2023/11/15 06:21:06;;;;;;;1.60;1.10;;;10.70;98.20;;;;;;4988438;28;20487;-84
2023/11/15 06:23:33;;;;;;;1.60;1.10;;;10.70;98.20;;;;;;5018673;28;20955;-84
2023/11/15 06:26:02;;;;;;;1.60;1.20;;;10.70;98.20;;;;;;4992119;28;20459;-82
2023/11/15 06:28:28;;;;;;;1.60;1.10;;;10.70;98.20;;;;;;5015961;28;20502;-82
2023/11/15 06:30:54;;;;;;;1.60;1.00;;;10.70;98.20;;;;;;4995039;28;20948;-82
2023/11/15 06:33:21;;;;;;;1.60;1.10;;;10.70;98.20;;;;;;5008194;28;20464;-82
2023/11/15 06:35:48;;;;;;;1.60;1.10;;;10.70;98.20;;;;;;4982001;28;20489;-81
2023/11/15 06:38:15;;;;;;;1.60;1.10;;;10.70;98.20;;;;;;5025224;28;20494;-82
2023/11/15 06:40:42;;;;;;;1.60;1.10;;;10.70;98.20;;;;;;5011752;28;20573;-83
2023/11/15 06:43:11;;;;;;;1.60;1.20;;;10.70;98.20;;;;;;5003916;28;20581;-82
2023/11/15 06:45:38;;;;;;;1.60;1.10;;;10.70;98.20;;;;;;4993753;28;20461;-82
2023/11/15 06:48:06;;;;;;;1.60;1.10;;;10.70;98.20;;;;;;5015018;28;20511;-82
2023/11/15 06:50:34;;;;;;;1.60;1.07;;;10.70;98.20;;;;;;5014470;28;20472;-82
2023/11/15 06:53:01;;;;;;;1.60;1.20;;;10.70;98.20;;;;;;5031374;28;20478;-81
2023/11/15 06:55:28;;;;;;;1.60;1.10;;;10.70;98.20;;;;;;5013762;28;20464;-79
2023/11/15 06:57:55;;;;;;;1.60;1.10;;;10.70;98.20;;;;;;5005156;28;20558;-82
2023/11/15 07:00:25;;;;;;;1.60;1.20;;;10.70;98.20;;;;;;4991820;28;20497;-82
2023/11/15 07:02:52;;;;;;;1.60;1.10;;;10.70;98.20;;;;;;5014093;28;20483;-82
2023/11/15 07:05:19;;;;;;;1.60;1.10;;;10.70;98.20;;;;;;5012155;28;20482;-82
2023/11/15 07:07:46;;;;;;;1.60;1.23;;;10.70;98.20;;;;;;5005412;28;20484;-82
2023/11/15 07:10:15;;;;;;;1.60;1.10;;;10.70;98.20;;;;;;4994366;28;20523;-82
2023/11/15 07:12:42;;;;;;;1.60;1.10;;;10.80;98.20;;;;;;5013471;28;20483;-82
2023/11/15 07:15:12;;;;;;;1.60;1.10;;;10.80;98.20;;;;;;4997449;28;20461;-82
2023/11/15 07:17:41;;;;;;;1.60;1.20;;;10.80;98.20;;;;;;5010909;28;20609;-82
2023/11/15 07:20:09;;;;;;;1.60;1.13;;;10.80;98.20;;;;;;4989213;28;20485;-82
2023/11/15 07:22:38;;;;;;;1.60;1.10;;;10.80;98.20;;;;;;5007830;28;20530;-81
2023/11/15 07:25:06;;;;;;;1.60;1.20;;;10.80;98.20;;;;;;4992629;28;20465;-83
2023/11/15 07:27:34;;;;;;;1.60;1.10;;;10.80;98.20;;;;;;5012412;28;20697;-81
2023/11/15 07:30:01;;;;;;;1.60;1.20;;;10.80;98.20;;;;;;4993060;28;20454;-81
2023/11/15 07:32:28;;;;;;;1.60;1.10;;;10.80;98.20;;;;;;5004712;28;20487;-81
2023/11/15 07:34:57;;;;;;;1.60;1.10;;;10.80;98.20;;;;;;4994647;28;20457;-82
2023/11/15 07:37:23;;;;;;;1.60;1.10;;;10.80;98.20;;;;;;5006937;28;20494;-81
2023/11/15 07:39:50;;;;;;;1.60;1.10;;;10.80;98.20;;;;;;5005925;28;20993;-82
2023/11/15 07:42:17;;;;;;;1.60;1.10;;;10.80;98.20;;;;;;5007496;28;20479;-81
2023/11/15 07:44:45;;;;;;;1.60;1.10;;;10.80;98.20;;;;;;4998400;28;20480;-82
2023/11/15 07:47:13;;;;;;;1.60;1.10;;;10.80;98.20;;;;;;5003832;28;20765;-82
2023/11/15 07:49:40;;;;;;;1.60;1.10;;;10.80;98.20;;;;;;5003754;28;20477;-82
2023/11/15 07:52:08;;;;;;;1.60;1.10;;;10.80;98.20;;;;;;5001405;28;20499;-82
2023/11/15 07:54:36;;;;;;;1.60;1.20;;;10.90;98.20;;;;;;5004682;28;20467;-83
2023/11/15 07:57:06;;;;;;;1.60;1.10;;;10.90;98.20;;;;;;5003706;28;20486;-82
2023/11/15 07:59:33;;;;;;;1.60;1.10;;;11.00;98.20;;;;;;5006332;28;20627;-82
2023/11/15 08:01:59;;;;;;;1.53;1.07;;;11.00;98.20;;;;;;5003378;28;21060;-82
2023/11/15 08:04:26;;;;;;;1.60;1.20;;;11.00;98.20;;;;;;5004742;28;20457;-82
2023/11/15 08:06:53;;;;;;;1.60;1.10;;;11.00;98.20;;;;;;5003623;28;20480;-82
2023/11/15 08:09:32;;;;;;;1.60;1.10;;;11.10;98.20;;;;;;5023586;28;20494;-82
2023/11/15 08:12:00;;;;;;;1.60;1.20;;;11.10;98.20;;;;;;5007614;28;20489;-84
2023/11/15 08:14:31;;;;;;;1.60;1.10;;;11.10;98.20;;;;;;5001817;28;20465;-83
2023/11/15 08:16:59;;;;;;;1.60;1.17;;;11.10;98.20;;;;;;4999636;28;20489;-83
2023/11/15 08:19:26;;;;;;;1.60;1.13;;;11.20;98.20;;;;;;5000727;28;20609;-79
2023/11/15 08:21:53;;;;;;;1.60;1.10;;;11.20;98.20;;;;;;5000079;28;20486;-83
2023/11/15 08:24:22;;;;;;;1.60;1.10;;;11.20;98.20;;;;;;5004557;28;20861;-83
2023/11/15 08:26:51;;;;;;;1.60;1.10;;;11.20;98.20;;;;;;4995680;28;20997;-83
2023/11/15 08:29:17;;;;;;;1.60;1.10;;;11.20;98.20;;;;;;5001204;28;20495;-83
2023/11/15 08:31:44;;;;;;;1.60;1.20;;;11.30;98.20;;;;;;4994221;28;20479;-82
2023/11/15 08:34:11;;;;;;;1.60;1.10;;;11.30;98.20;;;;;;5005537;28;20988;-83
2023/11/15 08:36:38;;;;;;;1.60;1.10;;;11.30;98.20;;;;;;4993310;28;20544;-82
2023/11/15 08:39:11;;;;;;;1.60;1.10;;;11.30;98.20;;;;;;5006217;28;20576;-82
2023/11/15 08:41:41;;;;;;;1.60;1.00;;;11.30;98.20;;;;;;4991961;28;20532;-82
2023/11/15 08:44:09;;;;;;;1.60;1.10;;;11.40;98.20;;;;;;5006198;28;20489;-83
2023/11/15 08:46:41;;;;;;;1.60;1.20;;;11.40;98.20;;;;;;4990797;28;21061;-82
2023/11/15 08:49:10;;;;;;;1.60;1.00;;;11.50;98.20;;;;;;5012039;28;20477;-82
2023/11/15 08:51:36;;;;;;;1.60;1.10;;;11.50;98.20;;;;;;4993775;28;20509;-83
2023/11/15 08:54:03;;;;;;;1.60;1.10;;;11.60;98.20;;;;;;5013692;28;20471;-82
2023/11/15 08:56:31;;;;;;;1.60;1.10;;;11.70;98.20;;;;;;4994342;28;20507;-84
2023/11/15 08:59:00;;;;;;;1.60;1.10;;;11.70;98.20;;;;;;4994205;28;20507;-83
2023/11/15 09:01:27;;;;;;;1.60;1.10;;;11.80;98.20;;;;;;4994908;28;21022;-81
2023/11/15 09:03:54;;;;;;;1.93;1.53;;;11.80;98.20;;;;;;4993205;28;20500;-84
2023/11/15 09:06:23;;;;;;;1.60;1.20;;;11.80;98.20;;;;;;4996075;28;20468;-85
2023/11/15 09:08:49;;;;;;;1.60;1.07;;;11.90;98.20;;;;;;4995795;28;20498;-84
2023/11/15 09:11:17;;;;;;;1.60;1.10;;;11.90;98.20;;;;;;4991928;28;20474;-84
2023/11/15 09:13:46;;;;;;;1.60;1.10;;;12.00;98.20;;;;;;5016736;28;20460;-84
2023/11/15 09:16:15;;;;;;;1.60;1.10;;;12.00;98.20;;;;;;4992853;28;21190;-84
2023/11/15 09:18:43;;;;;;;1.60;1.10;;;12.00;98.20;;;;;;5018201;28;20682;-83
2023/11/15 09:21:13;;;;;;;1.60;1.00;;;12.00;98.20;;;;;;4993951;28;20475;-83
2023/11/15 09:23:41;;;;;;;1.60;1.20;;;12.00;98.20;;;;;;5023174;28;20523;-82
2023/11/15 09:26:12;;;;;;;1.60;1.13;;;12.20;98.20;;;;;;4989144;28;20463;-81
2023/11/15 09:28:39;;;;;;;1.60;1.00;;;12.30;98.20;;;;;;5017872;28;21029;-81
2023/11/15 09:31:06;;;;;;;1.60;1.10;;;12.60;98.20;;;;;;4986478;28;20535;-82
2023/11/15 09:33:35;;;;;;;1.60;1.10;;;12.70;98.20;;;;;;5004793;28;20564;-79
2023/11/15 09:36:05;;;;;;;1.60;1.10;;;12.90;98.20;;;;;;4989530;28;20475;-84
2023/11/15 09:38:33;;;;;;;1.60;1.07;;;13.00;98.20;;;;;;5007182;28;20481;-81
2023/11/15 09:41:00;;;;;;;1.60;1.10;;;13.00;98.20;;;;;;4989429;28;20506;-81
2023/11/15 09:43:27;;;;;;;1.60;1.10;;;12.90;98.20;;;;;;5008249;28;20453;-82
2023/11/15 09:45:58;;;;;;;1.60;1.00;;;12.90;98.20;;;;;;4985352;28;20475;-83
2023/11/15 09:48:27;;;;;;;1.60;1.10;;;12.90;98.20;;;;;;5005273;28;20473;-82
2023/11/15 09:50:57;;;;;;;1.60;1.00;;;13.00;98.20;;;;;;4984213;28;20956;-82
2023/11/15 09:53:27;;;;;;;1.60;1.10;;;13.00;98.20;;;;;;5016918;28;20525;-82
2023/11/15 09:55:54;;;;;;;1.60;1.10;;;13.00;98.20;;;;;;4984664;28;20555;-84
2023/11/15 09:58:22;;;;;;;1.60;1.00;;;13.10;98.20;;;;;;5021482;28;20503;-83
2023/11/15 10:00:49;;;;;;;1.60;1.10;;;13.40;98.20;;;;;;4981745;28;20548;-82
2023/11/15 10:03:19;;;;;;;1.60;1.00;;;13.40;98.20;;;;;;5021052;28;20519;-83
2023/11/15 10:05:59;;;;;;;1.60;1.00;;;13.40;98.20;;;;;;4991426;28;20465;-82
2023/11/15 10:08:26;;;;;;;1.60;1.00;;;13.50;98.20;;;;;;4977845;28;20577;-82
2023/11/15 10:11:04;;;;;;;1.60;1.10;;;13.50;98.20;;;;;;4983955;28;20574;-84
2023/11/15 10:13:32;;;;;;;3.00;2.70;;;13.60;98.20;;;;;;5018579;28;20665;-82
2023/11/15 10:16:01;;;;;;;1.60;1.00;;;13.70;98.20;;;;;;4986913;28;20457;-83
2023/11/15 10:18:33;;;;;;;1.60;1.20;;;13.70;98.20;;;;;;5018228;28;21079;-81
2023/11/15 10:21:11;;;;;;;1.60;1.00;;;13.70;98.20;;;;;;4989263;28;20880;-83
2023/11/15 10:23:39;;;;;;;1.60;1.10;;;13.80;98.20;;;;;;5016856;28;20535;-84
2023/11/15 10:26:09;;;;;;;2.03;1.53;;;13.90;98.20;;;;;;4989614;28;20484;-82
2023/11/15 10:28:39;;;;;;;1.60;1.00;;;13.90;98.20;;;;;;5005882;28;20489;-85
2023/11/15 10:31:12;;;;;;;1.60;1.10;;;14.00;98.20;;;;;;4961259;28;20457;-82
2023/11/15 10:33:43;;;;;;;1.60;1.00;;;14.10;98.20;;;;;;4992442;28;20474;-84
2023/11/15 10:36:16;;;;;;;1.60;1.00;;;14.20;98.20;;;;;;4967210;28;20517;-84
2023/11/15 10:38:48;;;;;;;1.60;1.00;;;14.30;98.20;;;;;;5001807;28;20573;-84
2023/11/15 10:41:17;;;;;;;1.60;1.00;;;14.40;98.20;;;;;;4991086;28;20522;-84
2023/11/15 10:43:47;;;;;;;1.70;1.20;;;14.40;98.20;;;;;;5015712;28;20476;-85
2023/11/15 10:46:16;;;;;;;1.60;1.00;;;14.40;98.20;;;;;;4990154;28;20522;-85
2023/11/15 10:48:45;;;;;;;1.60;1.00;;;14.40;98.20;;;;;;5016668;28;21033;-84
2023/11/15 10:51:20;;;;;;;1.60;1.00;;;14.40;98.20;;;;;;4990267;28;20949;-85
2023/11/15 10:53:48;;;;;;;1.60;1.10;;;14.30;98.20;;;;;;5014793;28;20464;-84
2023/11/15 10:56:15;;;;;;;1.60;1.00;;;14.20;98.20;;;;;;4992162;28;20909;-84
2023/11/15 10:58:45;;;;;;;1.63;1.10;;;14.10;98.20;;;;;;5030341;28;20479;-83
2023/11/15 11:01:16;;;;;;;1.63;1.00;;;14.00;98.20;;;;;;5003469;28;20481;-84
2023/11/15 11:03:45;;;;;;;1.60;1.00;;;14.00;98.20;;;;;;5002505;28;20465;-84
2023/11/15 11:06:24;;;;;;;1.60;1.10;;;13.90;98.20;;;;;;4989219;28;20610;-82
2023/11/15 11:09:09;;;;;;;1.60;1.00;;;14.00;98.20;;;;;;5024234;28;20484;-82
2023/11/15 11:11:43;;;;;;;1.60;1.10;;;14.00;98.20;;;;;;5006311;28;20562;-83
2023/11/15 11:14:25;;;;;;;1.60;1.00;;;14.00;98.20;;;;;;5021538;28;20655;-82
2023/11/15 11:16:53;;;;;;;1.60;1.00;;;14.00;98.20;;;;;;5004097;28;20472;-83
2023/11/15 11:19:23;;;;;;;1.60;1.10;;;14.00;98.20;;;;;;5001670;28;20929;-84
2023/11/15 11:22:12;;;;;;;1.60;1.00;;;13.90;98.20;;;;;;5007677;28;20474;-84
2023/11/15 11:24:42;;;;;;;1.60;1.00;;;13.90;98.20;;;;;;5020217;28;20491;-83
2023/11/15 11:27:34;;;;;;;1.67;1.07;;;13.90;98.20;;;;;;5012009;28;20485;-84
2023/11/15 11:30:19;;;;;;;1.60;0.97;;;13.90;98.20;;;;;;5006720;28;20903;-84
2023/11/15 11:32:47;;;;;;;1.60;1.10;;;14.00;98.20;;;;;;5018043;28;20481;-81
2023/11/15 11:35:34;;;;;;;1.60;1.00;;;13.90;98.20;;;;;;5013457;28;20538;-82
2023/11/15 11:38:04;;;;;;;1.60;1.00;;;13.90;98.20;;;;;;5030011;28;20481;-82
2023/11/15 11:40:33;;;;;;;1.60;1.00;;;13.80;98.20;;;;;;5012076;28;20508;-83
2023/11/15 11:43:15;;;;;;;1.60;1.10;;;13.80;98.20;;;;;;5032646;28;20861;-85
2023/11/15 11:45:44;;;;;;;1.60;1.00;;;13.70;98.20;;;;;;5011020;28;20467;-83
2023/11/15 11:48:23;;;;;;;1.60;1.00;;;13.70;98.20;;;;;;5040207;28;20487;-85
2023/11/15 11:50:59;;;;;;;2.00;1.60;;;13.70;98.20;;;;;;5002276;28;20555;-83
2023/11/15 11:53:28;;;;;;;1.60;1.00;;;13.60;98.20;;;;;;5025940;28;20463;-83
2023/11/15 11:55:56;;;;;;;1.60;1.00;;;13.60;98.20;;;;;;5002001;28;20558;-82
2023/11/15 11:58:26;;;;;;;1.60;1.00;;;13.60;98.20;;;;;;5028192;28;20559;-83
2023/11/15 12:01:01;;;;;;;1.60;1.10;;;13.70;98.20;;;;;;5002359;28;20550;-82
2023/11/15 12:03:30;;;;;;;1.60;1.10;;;13.70;98.20;;;;;;5020381;28;20452;-84
2023/11/15 12:06:07;;;;;;;1.60;1.10;;;13.80;98.20;;;;;;5003521;28;20472;-82
2023/11/15 12:08:36;;;;;;;1.60;1.10;;;13.90;98.20;;;;;;5020301;28;20989;-82
2023/11/15 12:11:04;;;;;;;1.60;1.10;;;13.90;98.20;;;;;;5001317;28;20467;-83
2023/11/15 12:13:47;;;;;;;1.60;1.00;;;13.90;98.20;;;;;;5025277;28;20523;-82
2023/11/15 12:16:22;;;;;;;1.60;1.00;;;14.00;98.20;;;;;;5005441;28;20590;-82
2023/11/15 12:19:01;;;;;;;1.60;1.00;;;13.90;98.20;;;;;;5013435;28;20518;-82
2023/11/15 12:21:28;;;;;;;1.60;1.10;;;13.90;98.20;;;;;;4990329;28;20800;-82
2023/11/15 12:23:57;;;;;;;1.60;1.00;;;14.00;98.20;;;;;;5004122;28;20488;-82
2023/11/15 12:26:25;;;;;;;1.60;1.00;;;14.10;98.20;;;;;;4986491;28;20517;-82
2023/11/15 12:28:51;;;;;;;1.60;0.97;;;14.20;98.20;;;;;;5005395;28;20492;-83
2023/11/15 12:31:19;;;;;;;1.60;1.00;;;14.30;98.20;;;;;;4986102;28;20475;-83
2023/11/15 12:33:46;;;;;;;1.60;1.10;;;14.50;98.20;;;;;;5010081;28;20461;-83
2023/11/15 12:36:15;;;;;;;1.60;1.00;;;14.70;98.20;;;;;;4994259;28;20506;-83
2023/11/15 12:38:54;;;;;;;1.60;1.10;;;14.80;98.20;;;;;;5014157;28;20492;-83
2023/11/15 12:41:23;;;;;;;1.60;1.17;;;15.00;98.20;;;;;;4987152;28;20474;-83
2023/11/15 12:44:12;;;;;;;1.60;1.00;;;15.00;98.20;;;;;;5006583;28;20461;-82
2023/11/15 12:46:39;;;;;;;1.60;1.00;;;15.00;98.20;;;;;;4990565;28;20491;-83
2023/11/15 12:49:13;;;;;;;1.70;1.20;;;15.00;98.20;;;;;;5005044;28;20565;-82
2023/11/15 12:51:45;;;;;;;1.60;1.00;;;15.00;98.20;;;;;;4991034;28;20479;-83
2023/11/15 12:54:12;;;;;;;1.60;1.00;;;15.00;98.20;;;;;;5003020;28;20457;-81
2023/11/15 12:56:42;;;;;;;1.60;1.00;;;15.00;98.20;;;;;;4993376;28;20519;-82